Time;durP1;ratioP1;P1;durP2;ratioP2;P2;SDS_P1;SDS_P2;PMS_P1;PMS_P2;Temp;Humidity;BMP_temperature;BMP_pressure;BME280_temperature;BME280_humidity;BME280_pressure;Samples;Min_cycle;Max_cycle;Signal;HPM_P1;HPM_P2
2021/11/28 00:00:27;;;;;;;;;1.00;1.00;;;;;;;;5035078;28;45450;-85
2021/11/28 00:02:53;;;;;;;;;1.25;0.25;;;;;;;;5033772;28;46715;-83
2021/11/28 00:05:21;;;;;;;;;2.00;2.00;;;;;;;;5034271;28;45473;-82
2021/11/28 00:08:03;;;;;;;;;3.00;2.00;;;;;;;;5033957;28;45409;-83
2021/11/28 00:13:10;;;;;;;;;3.25;2.50;;;;;;;;5033766;28;45414;-81
2021/11/28 00:15:36;;;;;;;;;3.25;1.00;;;;;;;;5034026;28;45505;-83
2021/11/28 00:18:01;;;;;;;;;3.25;1.50;;;;;;;;5032082;28;45335;-83
2021/11/28 00:20:26;;;;;;;;;3.75;2.25;;;;;;;;5035718;28;45368;-83
2021/11/28 00:22:52;;;;;;;;;2.75;1.75;;;;;;;;5034874;28;45414;-84
2021/11/28 00:25:18;;;;;;;;;4.00;2.00;;;;;;;;5035356;28;45432;-84
2021/11/28 00:27:45;;;;;;;;;3.00;2.75;;;;;;;;5037087;28;45565;-85
2021/11/28 00:30:12;;;;;;;;;4.75;2.25;;;;;;;;5037396;28;45249;-82
2021/11/28 00:32:38;;;;;;;;;1.25;1.25;;;;;;;;5036981;28;45423;-84
2021/11/28 00:35:03;;;;;;;;;2.75;2.00;;;;;;;;5036642;28;45165;-83
2021/11/28 00:37:28;;;;;;;;;3.25;1.50;;;;;;;;5036740;28;45317;-83
2021/11/28 00:39:53;;;;;;;;;2.50;2.25;;;;;;;;5038056;28;45233;-83
2021/11/28 00:42:19;;;;;;;;;1.75;1.75;;;;;;;;5038014;28;45337;-82
2021/11/28 00:44:44;;;;;;;;;1.25;1.00;;;;;;;;5037084;28;45441;-82
2021/11/28 00:47:11;;;;;;;;;1.75;1.75;;;;;;;;5037370;28;45384;-81
2021/11/28 00:49:37;;;;;;;;;1.00;1.00;;;;;;;;5037148;28;45529;-82
2021/11/28 00:52:03;;;;;;;;;3.00;3.00;;;;;;;;5036811;28;45402;-81
2021/11/28 00:54:29;;;;;;;;;6.25;2.00;;;;;;;;5036911;28;45396;-84
2021/11/28 00:56:54;;;;;;;;;3.00;2.00;;;;;;;;5037185;28;45398;-82
2021/11/28 00:59:20;;;;;;;;;1.00;1.00;;;;;;;;5036511;28;45434;-83
2021/11/28 01:01:45;;;;;;;;;2.00;1.00;;;;;;;;5036228;28;46383;-83
2021/11/28 01:04:10;;;;;;;;;1.25;1.00;;;;;;;;5036784;28;45398;-82
2021/11/28 01:06:36;;;;;;;;;2.00;2.00;;;;;;;;5036768;28;45355;-83
2021/11/28 01:09:03;;;;;;;;;2.75;2.00;;;;;;;;5037419;28;45410;-81
2021/11/28 01:11:28;;;;;;;;;1.00;1.00;;;;;;;;5033879;28;47324;-82
2021/11/28 01:13:53;;;;;;;;;2.25;1.00;;;;;;;;5036674;28;45265;-83
2021/11/28 01:16:20;;;;;;;;;4.75;2.50;;;;;;;;5038321;28;47168;-83
2021/11/28 01:18:46;;;;;;;;;4.25;1.00;;;;;;;;5036844;28;45365;-82
2021/11/28 01:21:11;;;;;;;;;2.00;1.00;;;;;;;;5037000;28;46108;-82
2021/11/28 01:23:36;;;;;;;;;2.25;1.50;;;;;;;;5036652;28;45505;-83
2021/11/28 01:26:01;;;;;;;;;3.50;2.25;;;;;;;;5037013;28;45517;-82
2021/11/28 01:28:27;;;;;;;;;1.00;1.00;;;;;;;;5038485;28;45390;-83
2021/11/28 01:30:52;;;;;;;;;2.25;1.25;;;;;;;;5048335;28;45293;-82
2021/11/28 01:33:17;;;;;;;;;2.50;1.75;;;;;;;;5038182;28;45427;-83
2021/11/28 01:35:43;;;;;;;;;1.75;1.00;;;;;;;;5035745;28;45391;-81
2021/11/28 01:38:08;;;;;;;;;0.50;0.50;;;;;;;;5035169;28;45565;-82
2021/11/28 01:40:34;;;;;;;;;0.50;0.25;;;;;;;;5034559;28;47123;-82
2021/11/28 01:43:03;;;;;;;;;2.75;1.00;;;;;;;;5035642;28;45329;-84
2021/11/28 01:45:30;;;;;;;;;3.00;0.75;;;;;;;;5036233;28;45383;-83
2021/11/28 01:47:56;;;;;;;;;2.25;1.00;;;;;;;;5036224;28;45410;-83
2021/11/28 01:50:23;;;;;;;;;1.75;1.75;;;;;;;;5035456;28;45439;-81
2021/11/28 01:52:49;;;;;;;;;1.25;1.00;;;;;;;;5036817;28;45336;-81
2021/11/28 01:55:17;;;;;;;;;1.00;1.00;;;;;;;;5035817;28;45439;-81
2021/11/28 01:57:43;;;;;;;;;0.00;0.00;;;;;;;;5035278;28;45521;-83
2021/11/28 02:00:09;;;;;;;;;1.00;1.00;;;;;;;;5036692;28;46223;-83
2021/11/28 02:02:36;;;;;;;;;0.00;0.00;;;;;;;;5035751;28;45538;-83
2021/11/28 02:05:01;;;;;;;;;1.00;1.00;;;;;;;;5034882;28;45478;-82
2021/11/28 02:07:27;;;;;;;;;2.25;1.00;;;;;;;;5035466;28;45506;-83
2021/11/28 02:09:52;;;;;;;;;1.25;1.25;;;;;;;;5036042;28;46244;-83
2021/11/28 02:12:18;;;;;;;;;3.00;1.50;;;;;;;;5036770;28;45305;-82
2021/11/28 02:14:43;;;;;;;;;1.75;1.00;;;;;;;;5035449;28;45288;-82
2021/11/28 02:17:10;;;;;;;;;2.50;2.00;;;;;;;;5035725;28;45387;-83
2021/11/28 02:19:36;;;;;;;;;2.75;0.25;;;;;;;;5035751;28;46635;-83
2021/11/28 02:22:01;;;;;;;;;2.00;1.00;;;;;;;;5035480;28;45195;-84
2021/11/28 02:24:26;;;;;;;;;2.00;0.75;;;;;;;;5036298;28;45288;-84
2021/11/28 02:26:51;;;;;;;;;2.50;1.25;;;;;;;;5035648;28;45545;-84
2021/11/28 02:29:17;;;;;;;;;2.00;1.00;;;;;;;;5035217;28;45939;-84
2021/11/28 02:31:42;;;;;;;;;1.00;1.00;;;;;;;;5035573;28;45475;-83
2021/11/28 02:34:07;;;;;;;;;1.00;1.00;;;;;;;;5035637;28;45394;-83
2021/11/28 02:36:32;;;;;;;;;1.00;1.00;;;;;;;;5036391;28;45460;-83
2021/11/28 02:38:57;;;;;;;;;1.50;1.50;;;;;;;;5036170;28;45279;-83
2021/11/28 02:41:23;;;;;;;;;1.50;1.50;;;;;;;;5034898;28;45323;-84
2021/11/28 02:43:48;;;;;;;;;1.00;1.00;;;;;;;;5034945;28;45450;-83
2021/11/28 02:46:14;;;;;;;;;6.50;2.50;;;;;;;;5034106;28;45226;-83
2021/11/28 02:48:40;;;;;;;;;2.00;2.00;;;;;;;;5034385;28;47646;-84
2021/11/28 02:51:05;;;;;;;;;1.00;1.00;;;;;;;;5035426;28;45411;-83
2021/11/28 02:53:31;;;;;;;;;1.00;1.00;;;;;;;;5035152;28;45368;-84
2021/11/28 02:56:00;;;;;;;;;0.50;0.00;;;;;;;;5035717;28;45692;-84
2021/11/28 02:58:26;;;;;;;;;0.50;0.25;;;;;;;;5034825;28;45450;-85
2021/11/28 03:00:59;;;;;;;;;2.00;2.00;;;;;;;;5035426;28;45414;-83
2021/11/28 03:03:25;;;;;;;;;0.25;0.25;;;;;;;;5035955;28;45257;-83
2021/11/28 03:05:50;;;;;;;;;2.50;2.50;;;;;;;;5035485;28;45264;-83
2021/11/28 03:08:16;;;;;;;;;0.75;0.75;;;;;;;;5034872;28;46879;-83
2021/11/28 03:10:43;;;;;;;;;1.50;1.50;;;;;;;;5034661;28;45749;-83
2021/11/28 03:13:16;;;;;;;;;0.00;0.00;;;;;;;;5034513;28;45552;-84
2021/11/28 03:15:42;;;;;;;;;1.00;1.00;;;;;;;;5035221;28;45403;-84
2021/11/28 03:18:14;;;;;;;;;0.25;0.25;;;;;;;;5034554;28;45396;-83
2021/11/28 03:20:40;;;;;;;;;1.25;1.00;;;;;;;;5034385;28;45295;-83
2021/11/28 03:23:06;;;;;;;;;1.00;1.00;;;;;;;;5034419;28;45408;-82
2021/11/28 03:25:32;;;;;;;;;0.50;0.00;;;;;;;;5034802;28;45299;-84
2021/11/28 03:27:57;;;;;;;;;0.00;0.00;;;;;;;;5035449;28;45217;-83
2021/11/28 03:30:23;;;;;;;;;1.00;1.00;;;;;;;;5043923;28;45413;-84
2021/11/28 03:32:48;;;;;;;;;1.50;1.50;;;;;;;;5047694;28;45434;-84
2021/11/28 03:35:13;;;;;;;;;2.00;1.00;;;;;;;;5034743;28;45372;-84
2021/11/28 03:37:38;;;;;;;;;0.00;0.00;;;;;;;;5035389;28;46432;-83
2021/11/28 03:40:04;;;;;;;;;1.75;0.25;;;;;;;;5034929;28;45249;-84
2021/11/28 03:42:30;;;;;;;;;0.00;0.00;;;;;;;;5035718;28;45307;-83
2021/11/28 03:44:55;;;;;;;;;1.75;1.75;;;;;;;;5036247;28;45572;-81
2021/11/28 03:47:21;;;;;;;;;1.00;1.00;;;;;;;;5041011;28;45268;-82
2021/11/28 03:49:46;;;;;;;;;0.50;0.50;;;;;;;;5040750;28;45450;-84
2021/11/28 03:52:11;;;;;;;;;1.00;1.00;;;;;;;;5036651;28;45418;-82
2021/11/28 03:54:37;;;;;;;;;0.25;0.25;;;;;;;;5035091;28;45338;-83
2021/11/28 03:57:02;;;;;;;;;1.25;1.25;;;;;;;;5035420;28;46046;-84
2021/11/28 03:59:28;;;;;;;;;2.00;0.75;;;;;;;;5037505;28;45502;-83
2021/11/28 04:01:54;;;;;;;;;1.00;1.00;;;;;;;;5037370;28;45586;-82
2021/11/28 04:04:19;;;;;;;;;0.75;0.25;;;;;;;;5037462;28;45404;-84
2021/11/28 04:06:44;;;;;;;;;1.00;1.00;;;;;;;;5037306;28;45482;-82
2021/11/28 04:09:09;;;;;;;;;2.00;2.00;;;;;;;;5038272;28;45349;-82
2021/11/28 04:11:34;;;;;;;;;0.75;0.25;;;;;;;;5037764;28;49748;-83
2021/11/28 04:14:00;;;;;;;;;2.00;2.00;;;;;;;;5037812;28;45669;-82
2021/11/28 04:16:25;;;;;;;;;4.50;1.75;;;;;;;;5037013;28;47274;-83
2021/11/28 04:18:50;;;;;;;;;0.00;0.00;;;;;;;;5037593;28;45506;-83
2021/11/28 04:21:16;;;;;;;;;1.00;1.00;;;;;;;;5038131;28;45390;-83
2021/11/28 04:23:41;;;;;;;;;0.25;0.25;;;;;;;;5037487;28;45461;-84
2021/11/28 04:26:07;;;;;;;;;1.00;1.00;;;;;;;;5037007;28;46134;-83
2021/11/28 04:28:32;;;;;;;;;1.00;1.00;;;;;;;;5037263;28;45317;-84
2021/11/28 04:30:57;;;;;;;;;0.00;0.00;;;;;;;;5037111;28;45304;-84
2021/11/28 04:33:22;;;;;;;;;1.75;1.00;;;;;;;;5037741;28;45211;-83
2021/11/28 04:35:48;;;;;;;;;1.00;1.00;;;;;;;;5037353;28;47292;-84
2021/11/28 04:38:13;;;;;;;;;2.00;1.00;;;;;;;;5037258;28;45690;-82
2021/11/28 04:40:39;;;;;;;;;3.25;0.25;;;;;;;;5037842;28;45544;-82
2021/11/28 04:43:04;;;;;;;;;0.75;0.75;;;;;;;;5037124;28;45522;-84
2021/11/28 04:45:29;;;;;;;;;1.00;1.00;;;;;;;;5037617;28;46211;-84
2021/11/28 04:47:54;;;;;;;;;0.25;0.25;;;;;;;;5037426;28;45401;-83
2021/11/28 04:50:20;;;;;;;;;1.50;1.50;;;;;;;;5037249;28;45422;-82
2021/11/28 04:52:45;;;;;;;;;1.00;1.00;;;;;;;;5037086;28;45384;-81
2021/11/28 04:55:11;;;;;;;;;3.00;1.00;;;;;;;;5037158;28;46097;-82
2021/11/28 04:57:36;;;;;;;;;1.00;1.00;;;;;;;;5037396;28;45288;-83
2021/11/28 05:00:04;;;;;;;;;4.50;2.00;;;;;;;;5037771;28;45337;-82
2021/11/28 05:02:29;;;;;;;;;0.00;0.00;;;;;;;;5037480;28;45550;-83
2021/11/28 05:04:54;;;;;;;;;2.00;2.00;;;;;;;;5036669;28;46209;-83
2021/11/28 05:07:20;;;;;;;;;2.75;1.00;;;;;;;;5037237;28;45450;-84
2021/11/28 05:09:45;;;;;;;;;2.00;2.00;;;;;;;;5036474;28;45452;-84
2021/11/28 05:12:10;;;;;;;;;2.00;1.00;;;;;;;;5037479;28;45224;-83
2021/11/28 05:14:35;;;;;;;;;2.00;2.00;;;;;;;;5035737;28;46498;-82
2021/11/28 05:17:00;;;;;;;;;1.00;1.00;;;;;;;;5036008;28;45319;-83
2021/11/28 05:19:26;;;;;;;;;3.50;1.25;;;;;;;;5036957;28;45270;-83
2021/11/28 05:21:51;;;;;;;;;2.00;2.00;;;;;;;;5036960;28;45460;-83
2021/11/28 05:24:16;;;;;;;;;1.00;1.00;;;;;;;;5017415;28;46775;-83
2021/11/28 05:26:41;;;;;;;;;2.25;1.25;;;;;;;;5035808;28;45447;-82
2021/11/28 05:29:07;;;;;;;;;1.75;1.75;;;;;;;;5036394;28;45465;-83
2021/11/28 05:31:32;;;;;;;;;2.00;2.00;;;;;;;;5034997;28;45546;-83
2021/11/28 05:33:57;;;;;;;;;0.50;0.50;;;;;;;;5035948;28;46340;-84
2021/11/28 05:36:23;;;;;;;;;1.00;1.00;;;;;;;;5036451;28;45382;-83
2021/11/28 05:38:48;;;;;;;;;0.00;0.00;;;;;;;;5036732;28;45414;-82
2021/11/28 05:41:13;;;;;;;;;2.25;2.00;;;;;;;;5039438;28;45230;-82
2021/11/28 05:43:44;;;;;;;;;1.50;1.00;;;;;;;;5036538;28;45338;-82
2021/11/28 05:46:09;;;;;;;;;1.25;1.25;;;;;;;;5036448;28;45544;-82
2021/11/28 05:48:34;;;;;;;;;1.00;1.00;;;;;;;;5036399;28;45879;-84
2021/11/28 05:50:59;;;;;;;;;1.00;1.00;;;;;;;;5036948;28;45613;-78
2021/11/28 05:53:26;;;;;;;;;1.00;1.00;;;;;;;;5034956;28;47607;-82
2021/11/28 05:55:51;;;;;;;;;0.75;0.75;;;;;;;;5035651;28;45289;-81
2021/11/28 05:58:17;;;;;;;;;0.25;0.25;;;;;;;;5036422;28;45344;-82
2021/11/28 06:00:42;;;;;;;;;2.00;2.00;;;;;;;;5036420;28;45431;-83
2021/11/28 06:03:07;;;;;;;;;1.00;1.00;;;;;;;;5036767;28;46120;-82
2021/11/28 06:05:33;;;;;;;;;1.00;1.00;;;;;;;;5036292;28;45489;-82
2021/11/28 06:07:58;;;;;;;;;1.75;1.75;;;;;;;;5035891;28;45516;-82
2021/11/28 06:10:23;;;;;;;;;0.50;0.50;;;;;;;;5035491;28;45736;-82
2021/11/28 06:12:48;;;;;;;;;2.00;0.75;;;;;;;;5018789;28;46866;-82
2021/11/28 06:15:14;;;;;;;;;2.00;2.00;;;;;;;;5036886;28;45637;-82
2021/11/28 06:17:39;;;;;;;;;0.25;0.25;;;;;;;;5036474;28;45326;-82
2021/11/28 06:20:05;;;;;;;;;0.00;0.00;;;;;;;;5036139;28;45702;-82
2021/11/28 06:22:30;;;;;;;;;0.25;0.25;;;;;;;;5035692;28;46956;-82
2021/11/28 06:24:55;;;;;;;;;1.50;1.50;;;;;;;;5035133;28;45470;-82
2021/11/28 06:27:21;;;;;;;;;2.75;2.25;;;;;;;;5035850;28;45483;-82
2021/11/28 06:29:47;;;;;;;;;0.00;0.00;;;;;;;;5035956;28;45526;-82
2021/11/28 06:32:13;;;;;;;;;2.00;2.00;;;;;;;;5035260;28;46095;-83
2021/11/28 06:34:38;;;;;;;;;2.00;2.00;;;;;;;;5035272;28;45361;-81
2021/11/28 06:37:04;;;;;;;;;2.00;2.00;;;;;;;;5035475;28;45328;-83
2021/11/28 06:39:29;;;;;;;;;1.50;0.75;;;;;;;;5035369;28;45390;-84
2021/11/28 06:41:54;;;;;;;;;0.50;0.50;;;;;;;;5034923;28;46126;-82
2021/11/28 06:44:20;;;;;;;;;0.75;0.75;;;;;;;;5034597;28;45404;-83
2021/11/28 06:46:46;;;;;;;;;0.00;0.00;;;;;;;;5034746;28;45431;-83
2021/11/28 06:49:11;;;;;;;;;1.00;1.00;;;;;;;;5034597;28;45225;-83
2021/11/28 06:51:36;;;;;;;;;2.00;2.00;;;;;;;;5034550;28;46045;-81
2021/11/28 06:54:02;;;;;;;;;2.25;0.00;;;;;;;;5034820;28;45292;-82
2021/11/28 06:56:27;;;;;;;;;1.75;1.75;;;;;;;;5034666;28;45411;-83
2021/11/28 06:58:52;;;;;;;;;0.00;0.00;;;;;;;;5034781;28;45432;-82
2021/11/28 07:01:18;;;;;;;;;0.75;0.75;;;;;;;;5034695;28;45603;-83
2021/11/28 07:03:43;;;;;;;;;3.00;1.00;;;;;;;;5035037;28;45264;-81
2021/11/28 07:06:08;;;;;;;;;3.00;1.00;;;;;;;;5035976;28;45222;-82
2021/11/28 07:08:35;;;;;;;;;1.50;1.00;;;;;;;;5034595;28;44842;-82
2021/11/28 07:11:00;;;;;;;;;1.75;1.75;;;;;;;;5034220;28;46121;-82
2021/11/28 07:13:26;;;;;;;;;1.00;1.00;;;;;;;;5033706;28;45570;-82
2021/11/28 07:15:51;;;;;;;;;2.00;1.25;;;;;;;;5034614;28;45410;-83
2021/11/28 07:18:17;;;;;;;;;1.00;1.00;;;;;;;;5030299;28;45445;-84
2021/11/28 07:20:42;;;;;;;;;2.00;1.00;;;;;;;;5034022;28;45628;-83
2021/11/28 07:23:07;;;;;;;;;0.75;0.75;;;;;;;;5033558;28;45418;-81
2021/11/28 07:25:33;;;;;;;;;2.00;2.00;;;;;;;;5033802;28;45399;-81
2021/11/28 07:27:58;;;;;;;;;0.25;0.25;;;;;;;;5034012;28;45352;-83
2021/11/28 07:30:24;;;;;;;;;2.25;1.75;;;;;;;;5033832;28;45923;-83
2021/11/28 07:32:50;;;;;;;;;0.50;0.00;;;;;;;;5035256;28;45415;-81
2021/11/28 07:35:15;;;;;;;;;1.50;0.00;;;;;;;;5037920;28;45426;-82
2021/11/28 07:37:40;;;;;;;;;2.00;1.00;;;;;;;;5039033;28;45508;-82
2021/11/28 07:40:06;;;;;;;;;3.00;2.00;;;;;;;;5039667;28;46556;-83
2021/11/28 07:42:31;;;;;;;;;1.00;1.00;;;;;;;;5038524;28;45370;-83
2021/11/28 07:44:56;;;;;;;;;0.25;0.00;;;;;;;;5038519;28;45293;-83
2021/11/28 07:47:22;;;;;;;;;1.00;1.00;;;;;;;;5037661;28;45571;-82
2021/11/28 07:49:47;;;;;;;;;2.00;2.00;;;;;;;;5038026;28;46385;-82
2021/11/28 07:52:12;;;;;;;;;2.50;1.50;;;;;;;;5038650;28;45358;-81
2021/11/28 07:54:38;;;;;;;;;1.00;1.00;;;;;;;;5038047;28;45371;-82
2021/11/28 07:57:03;;;;;;;;;0.50;0.50;;;;;;;;5038785;28;45408;-81
2021/11/28 07:59:35;;;;;;;;;3.00;1.00;;;;;;;;5036212;28;47311;-83
2021/11/28 08:02:01;;;;;;;;;2.50;1.50;;;;;;;;5037491;28;45449;-82
2021/11/28 08:04:27;;;;;;;;;1.50;1.00;;;;;;;;5037640;28;45644;-82
2021/11/28 08:06:52;;;;;;;;;1.00;1.00;;;;;;;;5036705;28;45511;-83
2021/11/28 08:09:17;;;;;;;;;0.50;0.50;;;;;;;;5018785;28;45262;-83
2021/11/28 08:11:42;;;;;;;;;1.25;1.25;;;;;;;;5037242;28;45414;-83
2021/11/28 08:14:08;;;;;;;;;1.00;1.00;;;;;;;;5035745;28;45417;-84
2021/11/28 08:16:33;;;;;;;;;2.50;2.50;;;;;;;;5036424;28;45485;-82
2021/11/28 08:18:58;;;;;;;;;2.00;2.00;;;;;;;;5038678;28;46348;-83
2021/11/28 08:21:27;;;;;;;;;2.75;2.00;;;;;;;;5037313;28;45269;-82
2021/11/28 08:23:56;;;;;;;;;1.00;1.00;;;;;;;;5037343;28;45385;-80
2021/11/28 08:26:22;;;;;;;;;1.00;1.00;;;;;;;;5036315;28;45525;-81
2021/11/28 08:28:47;;;;;;;;;0.00;0.00;;;;;;;;5036666;28;45922;-82
2021/11/28 08:31:12;;;;;;;;;2.25;2.00;;;;;;;;5036659;28;45521;-81
2021/11/28 08:33:38;;;;;;;;;2.00;1.50;;;;;;;;5037461;28;45368;-84
2021/11/28 08:36:03;;;;;;;;;1.00;1.00;;;;;;;;5036926;28;45332;-82
2021/11/28 08:38:28;;;;;;;;;4.00;4.00;;;;;;;;5036349;28;47160;-83
2021/11/28 08:40:54;;;;;;;;;2.00;1.25;;;;;;;;5036445;28;45284;-82
2021/11/28 08:43:19;;;;;;;;;1.50;1.00;;;;;;;;5036634;28;45366;-83
2021/11/28 08:45:44;;;;;;;;;9.00;6.50;;;;;;;;5036380;28;45383;-76
2021/11/28 08:48:10;;;;;;;;;3.00;3.00;;;;;;;;5036468;28;46373;-80
2021/11/28 08:50:35;;;;;;;;;2.00;2.00;;;;;;;;5035693;28;45390;-81
2021/11/28 08:53:00;;;;;;;;;3.00;2.00;;;;;;;;5036050;28;45541;-84
2021/11/28 08:55:25;;;;;;;;;1.75;1.75;;;;;;;;5036484;28;45574;-82
2021/11/28 08:57:51;;;;;;;;;2.25;2.25;;;;;;;;5036450;28;46569;-84
2021/11/28 09:00:17;;;;;;;;;3.00;1.00;;;;;;;;5036477;28;45449;-81
2021/11/28 09:02:42;;;;;;;;;2.00;2.00;;;;;;;;5035987;28;45308;-83
2021/11/28 09:05:07;;;;;;;;;1.50;0.00;;;;;;;;5033665;28;45526;-85
2021/11/28 09:07:33;;;;;;;;;1.50;1.50;;;;;;;;5035643;28;45998;-85
2021/11/28 09:09:58;;;;;;;;;4.75;3.00;;;;;;;;5036146;28;45438;-85
2021/11/28 09:12:23;;;;;;;;;4.75;3.75;;;;;;;;5037315;28;45446;-84
2021/11/28 09:14:49;;;;;;;;;2.50;2.00;;;;;;;;5037691;28;45529;-85
2021/11/28 09:17:14;;;;;;;;;5.00;5.00;;;;;;;;5036919;28;46298;-85
2021/11/28 09:19:56;;;;;;;;;2.00;2.00;;;;;;;;5036416;28;45477;-83
2021/11/28 09:25:10;;;;;;;;;4.25;3.75;;;;;;;;5004533;28;45462;-81
2021/11/28 09:27:36;;;;;;;;;3.25;3.25;;;;;;;;5020182;28;46412;-84
2021/11/28 09:30:02;;;;;;;;;2.00;2.00;;;;;;;;5015807;28;45245;-85
2021/11/28 09:32:27;;;;;;;;;3.50;3.50;;;;;;;;5019821;28;44874;-83
2021/11/28 09:34:52;;;;;;;;;2.00;2.00;;;;;;;;5019974;28;45191;-84
2021/11/28 09:37:17;;;;;;;;;3.00;2.00;;;;;;;;5015640;28;46414;-84
2021/11/28 09:39:45;;;;;;;;;2.00;2.00;;;;;;;;5015003;28;45491;-84
2021/11/28 09:42:13;;;;;;;;;2.75;2.75;;;;;;;;5015299;28;45478;-84
2021/11/28 09:44:40;;;;;;;;;1.50;1.50;;;;;;;;5013738;28;45430;-85
2021/11/28 09:47:08;;;;;;;;;2.25;2.25;;;;;;;;5013425;28;47119;-85
2021/11/28 09:49:34;;;;;;;;;4.00;3.00;;;;;;;;5013403;28;45355;-84
2021/11/28 09:52:08;;;;;;;;;3.75;3.75;;;;;;;;5013913;28;45554;-85
2021/11/28 09:54:36;;;;;;;;;4.75;2.00;;;;;;;;5013722;28;45444;-84
2021/11/28 09:57:02;;;;;;;;;1.25;1.25;;;;;;;;5012053;28;45431;-84
2021/11/28 09:59:27;;;;;;;;;7.50;5.00;;;;;;;;5012248;28;45418;-78
2021/11/28 10:01:54;;;;;;;;;4.00;4.00;;;;;;;;5020916;28;45848;-79
2021/11/28 10:04:19;;;;;;;;;6.00;3.00;;;;;;;;5034943;28;45466;-80
2021/11/28 10:06:44;;;;;;;;;2.75;2.75;;;;;;;;5034370;28;46127;-75
2021/11/28 10:09:09;;;;;;;;;5.25;2.00;;;;;;;;5035847;28;45419;-76
2021/11/28 10:11:41;;;;;;;;;1.25;1.25;;;;;;;;5036218;28;45707;-76
2021/11/28 10:14:13;;;;;;;;;5.75;5.00;;;;;;;;5035822;28;45512;-76
2021/11/28 10:16:39;;;;;;;;;2.00;2.00;;;;;;;;5034804;28;46395;-82
2021/11/28 10:19:08;;;;;;;;;2.00;2.00;;;;;;;;5032817;28;45245;-78
2021/11/28 10:21:33;;;;;;;;;4.00;4.00;;;;;;;;5035202;28;45379;-83
2021/11/28 10:24:05;;;;;;;;;2.50;2.00;;;;;;;;5035081;28;45435;-81
2021/11/28 10:26:31;;;;;;;;;4.50;3.50;;;;;;;;5034624;28;46411;-79
2021/11/28 10:29:11;;;;;;;;;6.00;3.75;;;;;;;;5033843;28;45416;-78
2021/11/28 10:31:43;;;;;;;;;4.25;4.00;;;;;;;;5033940;28;45445;-78
2021/11/28 10:34:18;;;;;;;;;3.75;3.00;;;;;;;;5034535;28;45481;-75
2021/11/28 10:36:43;;;;;;;;;3.00;2.00;;;;;;;;5033467;28;46182;-78
2021/11/28 10:39:16;;;;;;;;;3.25;3.25;;;;;;;;5034953;28;45553;-76
2021/11/28 10:41:47;;;;;;;;;3.00;3.00;;;;;;;;5034368;28;45448;-77
2021/11/28 10:44:12;;;;;;;;;6.00;3.00;;;;;;;;5033882;28;45545;-78
2021/11/28 10:46:38;;;;;;;;;5.00;5.00;;;;;;;;5032191;28;47396;-75
2021/11/28 10:49:03;;;;;;;;;8.25;4.00;;;;;;;;5033850;28;45232;-70
2021/11/28 10:51:28;;;;;;;;;4.50;2.75;;;;;;;;5035204;28;45379;-76
2021/11/28 10:53:54;;;;;;;;;3.75;3.00;;;;;;;;5034802;28;45333;-79
2021/11/28 10:56:19;;;;;;;;;4.00;3.00;;;;;;;;5033331;28;46566;-78
2021/11/28 10:58:45;;;;;;;;;7.00;3.75;;;;;;;;5035295;28;45220;-80
2021/11/28 11:01:11;;;;;;;;;7.50;5.00;;;;;;;;5034016;28;45228;-84
2021/11/28 11:03:47;;;;;;;;;8.25;8.25;;;;;;;;5035012;28;45444;-80
2021/11/28 11:06:26;;;;;;;;;5.25;3.50;;;;;;;;5033426;28;46396;-78
2021/11/28 11:08:55;;;;;;;;;6.25;4.50;;;;;;;;5033617;28;45432;-79
2021/11/28 11:11:21;;;;;;;;;4.00;4.00;;;;;;;;5033849;28;45794;-77
2021/11/28 11:14:02;;;;;;;;;4.50;3.50;;;;;;;;5033865;28;45304;-77
2021/11/28 11:16:28;;;;;;;;;3.00;1.25;;;;;;;;5032971;28;45655;-73
2021/11/28 11:18:53;;;;;;;;;12.00;10.00;;;;;;;;5033243;28;45874;-74
2021/11/28 11:21:19;;;;;;;;;2.25;2.00;;;;;;;;5034717;28;45320;-85
2021/11/28 11:23:45;;;;;;;;;3.00;2.00;;;;;;;;5033579;28;45352;-76
2021/11/28 11:26:22;;;;;;;;;3.75;2.50;;;;;;;;5032036;28;47533;-76
2021/11/28 11:29:07;;;;;;;;;4.25;3.00;;;;;;;;5033221;28;45439;-77
2021/11/28 11:31:33;;;;;;;;;1.00;1.00;;;;;;;;5032978;28;45419;-74
2021/11/28 11:33:58;;;;;;;;;5.00;2.00;;;;;;;;5033396;28;45839;-77
2021/11/28 11:36:43;;;;;;;;;2.00;2.00;;;;;;;;5033893;28;46137;-76
2021/11/28 11:39:08;;;;;;;;;3.00;2.00;;;;;;;;5033456;28;45459;-75
2021/11/28 11:41:34;;;;;;;;;6.50;2.50;;;;;;;;5033833;28;45430;-75
2021/11/28 11:43:59;;;;;;;;;6.25;4.25;;;;;;;;5032592;28;45367;-74
2021/11/28 11:46:24;;;;;;;;;7.50;6.50;;;;;;;;5033091;28;45555;-75
2021/11/28 11:48:49;;;;;;;;;4.75;3.50;;;;;;;;5032989;28;45395;-73
2021/11/28 11:51:15;;;;;;;;;6.00;2.25;;;;;;;;5033634;28;45328;-72
2021/11/28 11:53:40;;;;;;;;;3.75;2.50;;;;;;;;5032713;28;45481;-71
2021/11/28 11:56:10;;;;;;;;;5.00;3.00;;;;;;;;5032238;28;45433;-71
2021/11/28 11:58:43;;;;;;;;;2.00;2.00;;;;;;;;5032276;28;45514;-71
2021/11/28 12:01:08;;;;;;;;;7.25;3.00;;;;;;;;5032991;28;45443;-72
2021/11/28 12:03:48;;;;;;;;;3.00;3.00;;;;;;;;5032854;28;45421;-73
2021/11/28 12:06:14;;;;;;;;;4.00;4.00;;;;;;;;5032864;28;46085;-72
2021/11/28 12:08:52;;;;;;;;;3.50;3.50;;;;;;;;5032822;28;45276;-74
2021/11/28 12:11:22;;;;;;;;;3.25;3.25;;;;;;;;5032794;28;47909;-72
2021/11/28 12:13:54;;;;;;;;;3.00;3.00;;;;;;;;5034243;28;45459;-75
2021/11/28 12:16:21;;;;;;;;;5.50;2.00;;;;;;;;5032763;28;45280;-71
2021/11/28 12:18:49;;;;;;;;;3.50;2.00;;;;;;;;5034130;28;45396;-70
2021/11/28 12:21:14;;;;;;;;;11.75;11.50;;;;;;;;5036861;28;45423;-72
2021/11/28 12:23:54;;;;;;;;;1.00;1.00;;;;;;;;5036550;28;45376;-75
2021/11/28 12:26:42;;;;;;;;;1.25;1.00;;;;;;;;5035901;28;46320;-73
2021/11/28 12:29:13;;;;;;;;;8.50;7.00;;;;;;;;5028284;28;45559;-83
2021/11/28 12:31:47;;;;;;;;;4.00;2.00;;;;;;;;5037696;28;45344;-87
2021/11/28 12:34:13;;;;;;;;;3.50;2.00;;;;;;;;5037456;28;45272;-83
2021/11/28 12:36:48;;;;;;;;;4.00;2.00;;;;;;;;5037274;28;46362;-82
2021/11/28 12:39:18;;;;;;;;;3.00;2.00;;;;;;;;5037850;28;45230;-83
2021/11/28 12:41:44;;;;;;;;;5.00;3.00;;;;;;;;5037109;28;45468;-80
2021/11/28 12:44:10;;;;;;;;;4.00;1.25;;;;;;;;5036955;28;45895;-81
2021/11/28 12:46:38;;;;;;;;;2.00;2.00;;;;;;;;5036234;28;45995;-81
2021/11/28 12:49:22;;;;;;;;;2.75;2.75;;;;;;;;5035790;28;45661;-75
2021/11/28 12:51:48;;;;;;;;;1.50;1.50;;;;;;;;5036566;28;45435;-80
2021/11/28 12:54:22;;;;;;;;;2.00;2.00;;;;;;;;5036679;28;45244;-78
2021/11/28 12:56:47;;;;;;;;;1.75;1.75;;;;;;;;5035587;28;46069;-78
2021/11/28 12:59:14;;;;;;;;;4.50;4.50;;;;;;;;5035036;28;45280;-78
2021/11/28 13:01:59;;;;;;;;;2.00;2.00;;;;;;;;5035698;28;45222;-78
2021/11/28 13:04:39;;;;;;;;;1.00;1.00;;;;;;;;5035792;28;45502;-78
2021/11/28 13:07:23;;;;;;;;;2.75;0.75;;;;;;;;5021686;28;47024;-78
2021/11/28 13:09:49;;;;;;;;;8.25;8.25;;;;;;;;5035493;28;45482;-78
2021/11/28 13:12:15;;;;;;;;;2.00;1.25;;;;;;;;5036139;28;45309;-77
2021/11/28 13:14:44;;;;;;;;;2.00;2.00;;;;;;;;5033915;28;45391;-78
2021/11/28 13:17:12;;;;;;;;;3.25;2.50;;;;;;;;5035353;28;45458;-78
2021/11/28 13:19:37;;;;;;;;;1.00;1.00;;;;;;;;5036447;28;45472;-77
2021/11/28 13:22:13;;;;;;;;;1.00;0.25;;;;;;;;5036988;28;45471;-78
2021/11/28 13:24:38;;;;;;;;;2.00;2.00;;;;;;;;5036222;28;45559;-76
2021/11/28 13:27:04;;;;;;;;;2.50;2.25;;;;;;;;5033998;28;47626;-77
2021/11/28 13:29:31;;;;;;;;;3.00;1.00;;;;;;;;5034568;28;45521;-77
2021/11/28 13:31:59;;;;;;;;;1.00;1.00;;;;;;;;5034707;28;45432;-78
2021/11/28 13:34:28;;;;;;;;;1.75;1.00;;;;;;;;5034801;28;45572;-77
2021/11/28 13:36:53;;;;;;;;;4.25;1.25;;;;;;;;5019629;28;46416;-77
2021/11/28 13:39:20;;;;;;;;;2.00;1.50;;;;;;;;5035883;28;45558;-76
2021/11/28 13:41:46;;;;;;;;;2.75;1.00;;;;;;;;5034816;28;45489;-77
2021/11/28 13:44:17;;;;;;;;;2.00;1.50;;;;;;;;5034896;28;45480;-79
2021/11/28 13:46:49;;;;;;;;;0.00;0.00;;;;;;;;5034690;28;47103;-78
2021/11/28 13:49:16;;;;;;;;;2.00;2.00;;;;;;;;5034574;28;45643;-77
2021/11/28 13:51:44;;;;;;;;;1.00;1.00;;;;;;;;5034649;28;45454;-78
2021/11/28 13:54:14;;;;;;;;;1.00;1.00;;;;;;;;5036025;28;45444;-78
2021/11/28 13:56:47;;;;;;;;;2.00;2.00;;;;;;;;5034145;28;46239;-79
2021/11/28 13:59:14;;;;;;;;;4.75;4.25;;;;;;;;5034741;28;45618;-83
2021/11/28 14:01:40;;;;;;;;;3.75;3.75;;;;;;;;5035672;28;45546;-82
2021/11/28 14:04:21;;;;;;;;;2.00;2.00;;;;;;;;5034896;28;45185;-78
2021/11/28 14:06:46;;;;;;;;;3.00;3.00;;;;;;;;5035043;28;45784;-88
2021/11/28 14:09:12;;;;;;;;;1.00;1.00;;;;;;;;5035513;28;45416;-82
2021/11/28 14:11:41;;;;;;;;;2.00;2.00;;;;;;;;5034761;28;45287;-82
2021/11/28 14:14:09;;;;;;;;;2.00;2.00;;;;;;;;5034559;28;45581;-77
2021/11/28 14:16:34;;;;;;;;;3.25;2.25;;;;;;;;5030590;28;46221;-80
2021/11/28 14:19:01;;;;;;;;;5.00;3.25;;;;;;;;5034197;28;45440;-83
2021/11/28 14:21:32;;;;;;;;;2.75;2.00;;;;;;;;5036056;28;45357;-77
2021/11/28 14:23:58;;;;;;;;;3.75;2.75;;;;;;;;5033915;28;45473;-77
2021/11/28 14:26:28;;;;;;;;;1.00;1.00;;;;;;;;5033976;28;46375;-77
2021/11/28 14:28:53;;;;;;;;;4.00;2.50;;;;;;;;5034707;28;45386;-88
2021/11/28 14:31:18;;;;;;;;;1.00;1.00;;;;;;;;5039516;28;45398;-86
2021/11/28 14:33:45;;;;;;;;;2.75;2.75;;;;;;;;5034562;28;49370;-78
2021/11/28 14:36:20;;;;;;;;;2.25;2.00;;;;;;;;5034446;28;45371;-78
2021/11/28 14:39:14;;;;;;;;;6.25;5.00;;;;;;;;5024200;28;45371;-80
2021/11/28 14:41:44;;;;;;;;;3.00;1.25;;;;;;;;5026567;28;45310;-79
2021/11/28 14:44:15;;;;;;;;;2.00;2.00;;;;;;;;5033983;28;45320;-77
2021/11/28 14:46:42;;;;;;;;;7.00;7.00;;;;;;;;5027249;28;48053;-82